Time;durP1;ratioP1;P1;durP2;ratioP2;P2;SDS_P1;SDS_P2;PMS_P1;PMS_P2;Temp;Humidity;BMP_temperature;BMP_pressure;BME280_temperature;BME280_humidity;BME280_pressure;Samples;Min_cycle;Max_cycle;Signal;HPM_P1;HPM_P2
2023/06/25 00:00:22;;;;;;;;;;;24.40;53.90;;;;;;5065715;28;19929;-70
2023/06/25 00:02:49;;;;;;;;;;;24.40;53.90;;;;;;5062442;28;19935;-70
2023/06/25 00:05:16;;;;;;;;;;;24.30;53.90;;;;;;5056777;28;19958;-68
2023/06/25 00:07:42;;;;;;;;;;;24.30;54.00;;;;;;5051074;28;19936;-70
2023/06/25 00:10:10;;;;;;;;;;;24.30;54.00;;;;;;5053182;28;19998;-69
2023/06/25 00:12:37;;;;;;;;;;;24.20;54.10;;;;;;5048734;28;19929;-69
2023/06/25 00:15:05;;;;;;;;;;;24.20;54.10;;;;;;5053865;28;19935;-69
2023/06/25 00:17:31;;;;;;;;;;;24.20;54.30;;;;;;5061681;28;19970;-69
2023/06/25 00:19:59;;;;;;;;;;;24.20;54.90;;;;;;5062955;28;20394;-69
2023/06/25 00:22:25;;;;;;;;;;;24.10;54.40;;;;;;5055347;28;20041;-69
2023/06/25 00:24:52;;;;;;;;;;;24.10;54.60;;;;;;5058294;28;20459;-71
2023/06/25 00:27:20;;;;;;;;;;;24.00;54.50;;;;;;5060614;28;19935;-69
2023/06/25 00:29:46;;;;;;;;;;;24.00;54.60;;;;;;5067015;28;19929;-69
2023/06/25 00:32:14;;;;;;;;;;;23.90;54.60;;;;;;5062220;28;20368;-69
2023/06/25 00:34:41;;;;;;;;;;;23.90;54.80;;;;;;5062546;28;19929;-69
2023/06/25 00:37:16;;;;;;;;;;;23.90;54.90;;;;;;5054821;28;19933;-69
2023/06/25 00:39:43;;;;;;;;;;;23.80;54.90;;;;;;5061302;28;20416;-69
2023/06/25 00:42:10;;;;;;;;;;;23.80;54.90;;;;;;5057033;28;19928;-69
2023/06/25 00:44:40;;;;;;;;;;;23.80;55.00;;;;;;5053471;28;20051;-69
2023/06/25 00:47:08;;;;;;;;;;;23.70;55.10;;;;;;5058734;28;19935;-69
2023/06/25 00:49:37;;;;;;;;;;;23.70;55.10;;;;;;5066606;28;20043;-69
2023/06/25 00:52:08;;;;;;;;;;;23.70;55.30;;;;;;5064527;28;19939;-69
2023/06/25 00:54:37;;;;;;;;;;;23.60;55.30;;;;;;5049118;28;19936;-69
2023/06/25 00:57:05;;;;;;;;;;;23.60;55.30;;;;;;5053599;28;19981;-70
2023/06/25 00:59:31;;;;;;;;;;;23.50;55.50;;;;;;5059411;28;19928;-70
2023/06/25 01:02:05;;;;;;;;;;;23.50;55.70;;;;;;5068111;28;19936;-70
2023/06/25 01:04:34;;;;;;;;;;;23.50;55.80;;;;;;5048722;28;19983;-70
2023/06/25 01:07:02;;;;;;;;;;;23.40;55.70;;;;;;5046678;28;20039;-69
2023/06/25 01:09:30;;;;;;;;;;;23.40;55.80;;;;;;5057814;28;19935;-70
2023/06/25 01:12:00;;;;;;;;;;;23.30;55.80;;;;;;5056893;28;20283;-69
2023/06/25 01:14:28;;;;;;;;;;;23.30;55.90;;;;;;5053244;28;19928;-70
2023/06/25 01:16:54;;;;;;;;;;;23.30;56.00;;;;;;5054893;28;20008;-69
2023/06/25 01:19:29;;;;;;;;;;;23.30;56.00;;;;;;5054099;28;19933;-70
2023/06/25 01:21:58;;;;;;;;;;;23.20;56.10;;;;;;5059481;28;19929;-70
2023/06/25 01:24:26;;;;;;;;;;;23.20;56.20;;;;;;5053613;28;19978;-69
2023/06/25 01:26:54;;;;;;;;;;;23.10;56.30;;;;;;5054510;28;19932;-71
2023/06/25 01:29:21;;;;;;;;;;;23.10;56.30;;;;;;5062399;28;19935;-69
2023/06/25 01:31:51;;;;;;;;;;;23.00;56.90;;;;;;5058421;28;20416;-69
2023/06/25 01:34:19;;;;;;;;;;;23.10;56.40;;;;;;5054793;28;19935;-71
2023/06/25 01:36:48;;;;;;;;;;;23.00;56.50;;;;;;5055457;28;20399;-69
2023/06/25 01:39:15;;;;;;;;;;;23.00;56.60;;;;;;5057504;28;19964;-70
2023/06/25 01:41:43;;;;;;;;;;;22.90;56.70;;;;;;5061908;28;19987;-70
2023/06/25 01:44:10;;;;;;;;;;;22.90;56.80;;;;;;5065650;28;19931;-69
2023/06/25 01:46:37;;;;;;;;;;;22.90;56.90;;;;;;5062295;28;19938;-69
2023/06/25 01:49:03;;;;;;;;;;;22.80;57.00;;;;;;5061157;28;20385;-69
2023/06/25 01:51:31;;;;;;;;;;;22.70;57.00;;;;;;5054813;28;19932;-69
2023/06/25 01:53:57;;;;;;;;;;;22.80;57.10;;;;;;5057323;28;20330;-70
2023/06/25 01:56:24;;;;;;;;;;;22.70;57.00;;;;;;5044413;28;19974;-69
2023/06/25 01:58:53;;;;;;;;;;;22.70;57.10;;;;;;5054146;28;19935;-70
2023/06/25 02:01:20;;;;;;;;;;;22.70;57.20;;;;;;5061002;28;20015;-70
2023/06/25 02:03:46;;;;;;;;;;;22.60;57.20;;;;;;5051224;28;20033;-69
2023/06/25 02:06:14;;;;;;;;;;;22.60;57.30;;;;;;5053144;28;19929;-70
2023/06/25 02:08:40;;;;;;;;;;;22.60;57.40;;;;;;5057732;28;20104;-70
2023/06/25 02:11:07;;;;;;;;;;;22.50;57.40;;;;;;5051262;28;19937;-69
2023/06/25 02:13:33;;;;;;;;;;;22.50;57.50;;;;;;5050703;28;20019;-69
2023/06/25 02:16:02;;;;;;;;;;;22.50;57.50;;;;;;5055856;28;20382;-70
2023/06/25 02:18:28;;;;;;;;;;;22.40;57.60;;;;;;5053396;28;19936;-69
2023/06/25 02:20:55;;;;;;;;;;;22.50;57.70;;;;;;5060735;28;19931;-69
2023/06/25 02:23:22;;;;;;;;;;;22.40;57.70;;;;;;5048430;28;19928;-68
2023/06/25 02:25:49;;;;;;;;;;;22.40;57.80;;;;;;5048667;28;20381;-70
2023/06/25 02:28:16;;;;;;;;;;;22.30;57.80;;;;;;5058146;28;19932;-69
2023/06/25 02:30:42;;;;;;;;;;;22.30;57.90;;;;;;5051956;28;19932;-69
2023/06/25 02:33:10;;;;;;;;;;;22.30;58.10;;;;;;5046107;28;19933;-69
2023/06/25 02:35:37;;;;;;;;;;;22.20;58.00;;;;;;5050930;28;19935;-68
2023/06/25 02:38:03;;;;;;;;;;;22.20;58.10;;;;;;5054247;28;20006;-69
2023/06/25 02:40:30;;;;;;;;;;;22.20;58.10;;;;;;5056356;28;19963;-69
2023/06/25 02:42:57;;;;;;;;;;;22.10;58.10;;;;;;5057516;28;19970;-69
2023/06/25 02:45:24;;;;;;;;;;;22.10;58.20;;;;;;5044413;28;19932;-69
2023/06/25 02:47:50;;;;;;;;;;;22.10;58.30;;;;;;5055191;28;20451;-69
2023/06/25 02:50:18;;;;;;;;;;;22.10;58.40;;;;;;5052324;28;19936;-69
2023/06/25 02:52:45;;;;;;;;;;;22.00;58.40;;;;;;5054473;28;19928;-70
2023/06/25 02:55:11;;;;;;;;;;;22.00;58.50;;;;;;5054949;28;19936;-69
2023/06/25 02:57:38;;;;;;;;;;;22.00;58.50;;;;;;5050972;28;19933;-69
2023/06/25 03:00:05;;;;;;;;;;;22.00;58.60;;;;;;5050837;28;20853;-69
2023/06/25 03:02:31;;;;;;;;;;;21.90;58.60;;;;;;5030465;28;19928;-69
2023/06/25 03:04:58;;;;;;;;;;;21.90;58.70;;;;;;5026187;28;19932;-70
2023/06/25 03:07:26;;;;;;;;;;;21.90;58.80;;;;;;5030465;28;19928;-69
2023/06/25 03:09:52;;;;;;;;;;;21.80;58.80;;;;;;5033527;28;19929;-70
2023/06/25 03:12:19;;;;;;;;;;;21.80;58.70;;;;;;5039125;28;19932;-70
2023/06/25 03:14:45;;;;;;;;;;;21.80;58.80;;;;;;5039237;28;19933;-69
2023/06/25 03:17:12;;;;;;;;;;;21.80;58.90;;;;;;5053968;28;19990;-69
2023/06/25 03:19:39;;;;;;;;;;;21.70;58.90;;;;;;5060257;28;19932;-69
2023/06/25 03:22:06;;;;;;;;;;;21.70;59.00;;;;;;5051745;28;19935;-69
2023/06/25 03:24:34;;;;;;;;;;;21.70;59.10;;;;;;5054686;28;19986;-68
2023/06/25 03:27:00;;;;;;;;;;;21.70;59.20;;;;;;5054427;28;19936;-69
2023/06/25 03:29:27;;;;;;;;;;;21.60;59.20;;;;;;5051789;28;19978;-69
2023/06/25 03:31:53;;;;;;;;;;;21.60;59.30;;;;;;5058019;28;20409;-69
2023/06/25 03:34:20;;;;;;;;;;;21.60;59.30;;;;;;5055969;28;19970;-70
2023/06/25 03:36:46;;;;;;;;;;;21.50;59.30;;;;;;5049662;28;19925;-69
2023/06/25 03:39:13;;;;;;;;;;;21.50;59.40;;;;;;5053982;28;19971;-69
2023/06/25 03:41:41;;;;;;;;;;;21.50;59.50;;;;;;5053349;28;19928;-69
2023/06/25 03:44:07;;;;;;;;;;;21.50;59.70;;;;;;5053118;28;19929;-70
2023/06/25 03:46:34;;;;;;;;;;;21.40;59.60;;;;;;5051382;28;20439;-69
2023/06/25 03:49:00;;;;;;;;;;;21.40;59.60;;;;;;5055174;28;20005;-69
2023/06/25 03:51:27;;;;;;;;;;;21.40;59.70;;;;;;5052777;28;19932;-69
2023/06/25 03:53:55;;;;;;;;;;;21.30;59.70;;;;;;5053260;28;20623;-69
2023/06/25 03:56:22;;;;;;;;;;;21.40;59.70;;;;;;5051637;28;19981;-70
2023/06/25 03:58:50;;;;;;;;;;;21.30;59.70;;;;;;5057984;28;19928;-69
2023/06/25 04:01:17;;;;;;;;;;;21.30;59.90;;;;;;5046998;28;19933;-69
2023/06/25 04:03:43;;;;;;;;;;;21.20;59.70;;;;;;5061123;28;19936;-69
2023/06/25 04:06:10;;;;;;;;;;;21.20;59.80;;;;;;5061726;28;19970;-69
2023/06/25 04:08:39;;;;;;;;;;;21.20;59.90;;;;;;5050696;28;19932;-69
2023/06/25 04:11:06;;;;;;;;;;;21.20;59.90;;;;;;5054766;28;19928;-69
2023/06/25 04:13:32;;;;;;;;;;;21.20;59.90;;;;;;5048714;28;19940;-69
2023/06/25 04:16:00;;;;;;;;;;;21.20;59.90;;;;;;5051300;28;20453;-69
2023/06/25 04:18:27;;;;;;;;;;;21.10;59.90;;;;;;5050366;28;19928;-69
2023/06/25 04:20:53;;;;;;;;;;;21.10;60.00;;;;;;5050415;28;20724;-69
2023/06/25 04:23:20;;;;;;;;;;;21.10;60.00;;;;;;5051533;28;19928;-69
2023/06/25 04:25:46;;;;;;;;;;;21.10;60.10;;;;;;5052534;28;19936;-69
2023/06/25 04:28:16;;;;;;;;;;;21.00;60.10;;;;;;5049934;28;19940;-69
2023/06/25 04:30:42;;;;;;;;;;;21.10;60.30;;;;;;5049462;28;19987;-69
2023/06/25 04:33:10;;;;;;;;;;;21.00;60.20;;;;;;5059487;28;19928;-69
2023/06/25 04:35:37;;;;;;;;;;;21.00;60.30;;;;;;5049329;28;19939;-69
2023/06/25 04:38:03;;;;;;;;;;;21.00;60.40;;;;;;5054485;28;19955;-69
2023/06/25 04:40:30;;;;;;;;;;;21.00;60.40;;;;;;5061776;28;19932;-69
2023/06/25 04:42:56;;;;;;;;;;;21.00;60.60;;;;;;5057330;28;19939;-70
2023/06/25 04:45:23;;;;;;;;;;;20.90;60.50;;;;;;5055124;28;19936;-70
2023/06/25 04:47:49;;;;;;;;;;;20.90;60.60;;;;;;5060583;28;20374;-69
2023/06/25 04:50:17;;;;;;;;;;;20.90;60.70;;;;;;5058733;28;19928;-69
2023/06/25 04:52:44;;;;;;;;;;;20.90;60.80;;;;;;5054826;28;19928;-69
2023/06/25 04:55:10;;;;;;;;;;;20.90;60.90;;;;;;5050455;28;19928;-69
2023/06/25 04:57:37;;;;;;;;;;;20.90;61.00;;;;;;5048230;28;20441;-69
2023/06/25 05:00:05;;;;;;;;;;;20.80;61.00;;;;;;5053644;28;20748;-69
2023/06/25 05:02:31;;;;;;;;;;;20.80;61.00;;;;;;5054452;28;19928;-69
2023/06/25 05:04:58;;;;;;;;;;;20.80;61.10;;;;;;5051937;28;20343;-69
2023/06/25 05:07:26;;;;;;;;;;;20.80;61.20;;;;;;5056444;28;19929;-68
2023/06/25 05:09:52;;;;;;;;;;;20.80;61.30;;;;;;5062639;28;19935;-69
2023/06/25 05:12:19;;;;;;;;;;;20.80;61.40;;;;;;5056938;28;20444;-69
2023/06/25 05:14:45;;;;;;;;;;;20.80;61.50;;;;;;5062618;28;19935;-69
2023/06/25 05:17:12;;;;;;;;;;;20.80;61.60;;;;;;5041231;28;19940;-68
2023/06/25 05:19:39;;;;;;;;;;;20.70;61.70;;;;;;5048697;28;19932;-70
2023/06/25 05:22:05;;;;;;;;;;;20.70;61.80;;;;;;5037831;28;20450;-69
2023/06/25 05:24:34;;;;;;;;;;;20.70;61.80;;;;;;5035734;28;20594;-69
2023/06/25 05:27:00;;;;;;;;;;;20.70;61.80;;;;;;5041231;28;19936;-69
2023/06/25 05:29:27;;;;;;;;;;;20.70;61.80;;;;;;5039451;28;19933;-69
2023/06/25 05:31:53;;;;;;;;;;;20.70;61.80;;;;;;5051000;28;19936;-69
2023/06/25 05:34:20;;;;;;;;;;;20.80;61.90;;;;;;5056868;28;19998;-69
2023/06/25 05:36:46;;;;;;;;;;;20.80;61.90;;;;;;5055127;28;19928;-69
2023/06/25 05:39:14;;;;;;;;;;;20.70;61.80;;;;;;5059279;28;21387;-69
2023/06/25 05:41:42;;;;;;;;;;;20.80;61.90;;;;;;5057758;28;20548;-69
2023/06/25 05:44:09;;;;;;;;;;;20.80;61.90;;;;;;5054019;28;19982;-69
2023/06/25 05:46:35;;;;;;;;;;;20.80;62.60;;;;;;5055323;28;19935;-69
2023/06/25 05:49:02;;;;;;;;;;;20.80;61.80;;;;;;5061174;28;19939;-69
2023/06/25 05:51:28;;;;;;;;;;;20.80;61.80;;;;;;5056403;28;19928;-69
2023/06/25 05:53:55;;;;;;;;;;;20.80;61.90;;;;;;5061391;28;19928;-69
2023/06/25 05:56:22;;;;;;;;;;;20.90;62.00;;;;;;5054895;28;19929;-69
2023/06/25 05:58:49;;;;;;;;;;;20.90;62.00;;;;;;5050787;28;19928;-69
2023/06/25 06:01:16;;;;;;;;;;;20.80;62.00;;;;;;5049279;28;20546;-69
2023/06/25 06:03:42;;;;;;;;;;;20.90;62.10;;;;;;5054580;28;20006;-69
2023/06/25 06:06:09;;;;;;;;;;;20.90;62.00;;;;;;5054423;28;19987;-69
2023/06/25 06:08:35;;;;;;;;;;;20.90;62.10;;;;;;5058099;28;19933;-69
2023/06/25 06:11:02;;;;;;;;;;;20.90;62.10;;;;;;5046944;28;20295;-69
2023/06/25 06:13:29;;;;;;;;;;;20.90;62.00;;;;;;5055656;28;19936;-69
2023/06/25 06:15:56;;;;;;;;;;;21.00;62.10;;;;;;5051074;28;19929;-69
2023/06/25 06:18:23;;;;;;;;;;;20.90;62.10;;;;;;5057996;28;19928;-69
2023/06/25 06:20:50;;;;;;;;;;;20.90;62.10;;;;;;5054510;28;19929;-69
2023/06/25 06:23:16;;;;;;;;;;;20.90;62.10;;;;;;5048079;28;20757;-69
2023/06/25 06:25:43;;;;;;;;;;;21.00;62.20;;;;;;5049323;28;21084;-69
2023/06/25 06:28:10;;;;;;;;;;;21.00;62.20;;;;;;5058185;28;19927;-69
2023/06/25 06:30:36;;;;;;;;;;;21.00;62.00;;;;;;5048203;28;19935;-69
2023/06/25 06:33:04;;;;;;;;;;;21.00;62.10;;;;;;5062991;28;19941;-69
2023/06/25 06:35:30;;;;;;;;;;;21.00;62.20;;;;;;5052793;28;19944;-69
2023/06/25 06:37:57;;;;;;;;;;;21.00;62.40;;;;;;5055212;28;20387;-70
2023/06/25 06:40:23;;;;;;;;;;;21.00;62.10;;;;;;5055126;28;19928;-69
2023/06/25 06:42:50;;;;;;;;;;;21.10;62.00;;;;;;5047810;28;19936;-69
2023/06/25 06:45:16;;;;;;;;;;;21.10;62.10;;;;;;5060537;28;19932;-68
2023/06/25 06:47:44;;;;;;;;;;;21.10;62.10;;;;;;5054290;28;19981;-69
2023/06/25 06:50:12;;;;;;;;;;;21.10;62.10;;;;;;5048916;28;19936;-70
2023/06/25 06:52:38;;;;;;;;;;;21.10;62.20;;;;;;5047724;28;19932;-69
2023/06/25 06:55:05;;;;;;;;;;;21.20;62.20;;;;;;5050174;28;19937;-70
2023/06/25 06:57:31;;;;;;;;;;;21.20;62.10;;;;;;5052225;28;19933;-69
2023/06/25 06:59:58;;;;;;;;;;;21.20;62.10;;;;;;5046767;28;19936;-69
2023/06/25 07:02:25;;;;;;;;;;;21.20;62.20;;;;;;5057022;28;19936;-69
2023/06/25 07:04:51;;;;;;;;;;;21.20;62.20;;;;;;5051659;28;19929;-69
2023/06/25 07:07:19;;;;;;;;;;;21.20;62.10;;;;;;5048208;28;19935;-70
2023/06/25 07:09:53;;;;;;;;;;;21.30;62.40;;;;;;5054634;28;19929;-67
2023/06/25 07:12:20;;;;;;;;;;;21.30;62.30;;;;;;5060289;28;19939;-69
2023/06/25 07:14:46;;;;;;;;;;;21.30;62.10;;;;;;5054605;28;19929;-69
2023/06/25 07:17:13;;;;;;;;;;;21.40;62.00;;;;;;5057720;28;19975;-70
2023/06/25 07:19:40;;;;;;;;;;;21.40;62.00;;;;;;5059536;28;20001;-69
2023/06/25 07:22:06;;;;;;;;;;;21.40;62.10;;;;;;5054062;28;19928;-69
2023/06/25 07:24:34;;;;;;;;;;;21.40;61.90;;;;;;5054651;28;19932;-69
2023/06/25 07:27:01;;;;;;;;;;;21.40;62.00;;;;;;5045057;28;19936;-69
2023/06/25 07:29:28;;;;;;;;;;;21.50;62.00;;;;;;5061259;28;19985;-69
2023/06/25 07:31:55;;;;;;;;;;;21.50;61.80;;;;;;5055184;28;19935;-69
2023/06/25 07:34:22;;;;;;;;;;;21.50;61.90;;;;;;5052547;28;19973;-68
2023/06/25 07:36:48;;;;;;;;;;;21.50;62.00;;;;;;5052058;28;19991;-69
2023/06/25 07:39:24;;;;;;;;;;;21.50;62.00;;;;;;5060890;28;19978;-68
2023/06/25 07:41:52;;;;;;;;;;;21.60;62.10;;;;;;5060212;28;19928;-69
2023/06/25 07:44:18;;;;;;;;;;;21.60;62.20;;;;;;5054461;28;19929;-69
2023/06/25 07:46:45;;;;;;;;;;;21.70;61.90;;;;;;5056185;28;19933;-69
2023/06/25 07:49:11;;;;;;;;;;;21.70;61.80;;;;;;5054418;28;19936;-68
2023/06/25 07:51:38;;;;;;;;;;;21.70;61.80;;;;;;5054173;28;19928;-69
2023/06/25 07:54:04;;;;;;;;;;;21.80;62.00;;;;;;5052648;28;19952;-69
2023/06/25 07:56:31;;;;;;;;;;;21.70;61.70;;;;;;5058384;28;20635;-70
2023/06/25 07:58:59;;;;;;;;;;;21.80;61.40;;;;;;5048656;28;19928;-69
2023/06/25 08:01:25;;;;;;;;;;;21.80;61.30;;;;;;5056801;28;19929;-69
2023/06/25 08:03:52;;;;;;;;;;;21.90;61.30;;;;;;5058668;28;19939;-69
2023/06/25 08:06:18;;;;;;;;;;;21.90;61.50;;;;;;5052586;28;19951;-69
2023/06/25 08:08:45;;;;;;;;;;;22.00;61.40;;;;;;5051352;28;19928;-68
2023/06/25 08:11:11;;;;;;;;;;;22.00;61.20;;;;;;5057331;28;19928;-69
2023/06/25 08:13:38;;;;;;;;;;;22.00;61.00;;;;;;5055252;28;19929;-69
2023/06/25 08:16:06;;;;;;;;;;;22.00;60.90;;;;;;5062685;28;19928;-69
2023/06/25 08:18:33;;;;;;;;;;;22.10;60.50;;;;;;5055690;28;19928;-69
2023/06/25 08:20:59;;;;;;;;;;;22.20;60.30;;;;;;5052953;28;19937;-69
2023/06/25 08:23:26;;;;;;;;;;;22.20;60.20;;;;;;5051226;28;19936;-68
2023/06/25 08:25:54;;;;;;;;;;;22.20;60.80;;;;;;5059537;28;19981;-69
2023/06/25 08:28:20;;;;;;;;;;;22.30;60.10;;;;;;5055079;28;20373;-70
2023/06/25 08:30:47;;;;;;;;;;;22.30;60.00;;;;;;5050740;28;19927;-69
2023/06/25 08:33:15;;;;;;;;;;;22.30;59.80;;;;;;5053847;28;19940;-69
2023/06/25 08:35:41;;;;;;;;;;;22.40;59.60;;;;;;5056113;28;19932;-70
2023/06/25 08:38:09;;;;;;;;;;;22.40;59.40;;;;;;5054719;28;19990;-69
2023/06/25 08:40:36;;;;;;;;;;;22.50;59.30;;;;;;5055625;28;19929;-69
2023/06/25 08:43:02;;;;;;;;;;;22.50;59.20;;;;;;5050728;28;19990;-69
2023/06/25 08:45:29;;;;;;;;;;;22.50;59.30;;;;;;5059889;28;19941;-69
2023/06/25 08:47:56;;;;;;;;;;;22.50;59.00;;;;;;5053666;28;20011;-69
2023/06/25 08:50:24;;;;;;;;;;;22.60;58.90;;;;;;5056747;28;20163;-69
2023/06/25 08:52:51;;;;;;;;;;;22.60;58.80;;;;;;5051163;28;19932;-69
2023/06/25 08:55:18;;;;;;;;;;;22.70;58.50;;;;;;5059065;28;20210;-69
2023/06/25 08:57:45;;;;;;;;;;;22.70;58.00;;;;;;5062653;28;19932;-69
2023/06/25 09:00:13;;;;;;;;;;;22.80;58.00;;;;;;5057580;28;19935;-69
2023/06/25 09:02:40;;;;;;;;;;;22.80;57.80;;;;;;5060485;28;19928;-69
2023/06/25 09:05:07;;;;;;;;;;;22.90;57.80;;;;;;5063319;28;20021;-69
2023/06/25 09:07:35;;;;;;;;;;;22.90;57.80;;;;;;5055402;28;19972;-69
2023/06/25 09:10:02;;;;;;;;;;;23.00;57.50;;;;;;5057400;28;19936;-70
2023/06/25 09:12:28;;;;;;;;;;;23.00;57.20;;;;;;5058945;28;19939;-69
2023/06/25 09:14:56;;;;;;;;;;;23.00;56.90;;;;;;5059557;28;19936;-69
2023/06/25 09:17:22;;;;;;;;;;;23.10;56.80;;;;;;5056797;28;19958;-70
2023/06/25 09:19:49;;;;;;;;;;;23.10;56.60;;;;;;5059627;28;19928;-69
2023/06/25 09:22:15;;;;;;;;;;;23.20;56.50;;;;;;5060873;28;19935;-70
2023/06/25 09:24:44;;;;;;;;;;;23.20;56.00;;;;;;5058441;28;19971;-69
2023/06/25 09:27:11;;;;;;;;;;;23.30;55.50;;;;;;5056082;28;19933;-69
2023/06/25 09:29:38;;;;;;;;;;;23.30;55.50;;;;;;5057939;28;20019;-69
2023/06/25 09:32:06;;;;;;;;;;;23.40;55.50;;;;;;5061062;28;19935;-69
2023/06/25 09:34:33;;;;;;;;;;;23.40;55.20;;;;;;5065152;28;19931;-69
2023/06/25 09:37:02;;;;;;;;;;;23.50;54.50;;;;;;5055720;28;19932;-70
2023/06/25 09:39:28;;;;;;;;;;;23.50;54.60;;;;;;5055146;28;19936;-69
2023/06/25 09:41:56;;;;;;;;;;;23.60;54.80;;;;;;5054614;28;19939;-69
2023/06/25 09:44:23;;;;;;;;;;;23.60;54.80;;;;;;5048480;28;19978;-69
2023/06/25 09:46:52;;;;;;;;;;;23.70;54.60;;;;;;5057435;28;19929;-69
2023/06/25 09:49:19;;;;;;;;;;;23.80;54.10;;;;;;5060344;28;20404;-70
2023/06/25 09:51:49;;;;;;;;;;;23.80;53.60;;;;;;5058607;28;19931;-69
2023/06/25 09:54:17;;;;;;;;;;;23.90;53.30;;;;;;5055887;28;19932;-69
2023/06/25 09:56:44;;;;;;;;;;;24.00;52.30;;;;;;5058316;28;19932;-68
2023/06/25 09:59:13;;;;;;;;;;;24.10;51.80;;;;;;5048568;28;19936;-69
2023/06/25 10:01:40;;;;;;;;;;;24.20;51.60;;;;;;5061561;28;20259;-69
2023/06/25 10:04:07;;;;;;;;;;;24.20;51.50;;;;;;5061626;28;19963;-69
2023/06/25 10:06:35;;;;;;;;;;;24.30;51.00;;;;;;5048465;28;19932;-69
2023/06/25 10:09:02;;;;;;;;;;;24.40;50.70;;;;;;5061211;28;19928;-69
2023/06/25 10:11:29;;;;;;;;;;;24.40;50.60;;;;;;5049471;28;19929;-69
2023/06/25 10:13:57;;;;;;;;;;;24.50;50.40;;;;;;5053068;28;19928;-69
2023/06/25 10:16:25;;;;;;;;;;;24.60;50.10;;;;;;5056522;28;19928;-69
2023/06/25 10:18:54;;;;;;;;;;;24.70;49.90;;;;;;5058293;28;19932;-69
2023/06/25 10:21:21;;;;;;;;;;;24.70;49.70;;;;;;5052455;28;19932;-68
2023/06/25 10:23:56;;;;;;;;;;;24.80;49.60;;;;;;5057660;28;19986;-69
2023/06/25 10:26:25;;;;;;;;;;;24.90;49.50;;;;;;5054979;28;19929;-69
2023/06/25 10:28:52;;;;;;;;;;;25.00;49.30;;;;;;5057150;28;19939;-70
2023/06/25 10:31:18;;;;;;;;;;;25.10;49.20;;;;;;5051026;28;20330;-69
2023/06/25 10:33:46;;;;;;;;;;;25.10;49.00;;;;;;5047310;28;19924;-69
2023/06/25 10:36:13;;;;;;;;;;;25.20;49.00;;;;;;5058450;28;19932;-69
2023/06/25 10:38:40;;;;;;;;;;;25.30;48.80;;;;;;5058026;28;19925;-69
2023/06/25 10:41:06;;;;;;;;;;;25.40;48.50;;;;;;5054132;28;19925;-70
2023/06/25 10:43:33;;;;;;;;;;;25.40;48.10;;;;;;5054290;28;20439;-69
2023/06/25 10:45:59;;;;;;;;;;;25.50;47.70;;;;;;5052874;28;19935;-69
2023/06/25 10:48:26;;;;;;;;;;;25.60;47.70;;;;;;5057657;28;19948;-69
2023/06/25 10:50:54;;;;;;;;;;;25.60;47.20;;;;;;5058706;28;19955;-70
2023/06/25 10:53:21;;;;;;;;;;;25.70;47.00;;;;;;5051769;28;20613;-69
2023/06/25 10:55:48;;;;;;;;;;;25.80;47.00;;;;;;5053578;28;19925;-70
2023/06/25 10:58:15;;;;;;;;;;;25.90;46.80;;;;;;5053677;28;19928;-70
2023/06/25 11:00:41;;;;;;;;;;;25.90;46.60;;;;;;5055623;28;20429;-70
2023/06/25 11:03:08;;;;;;;;;;;26.00;46.70;;;;;;5062882;28;19932;-69
2023/06/25 11:05:35;;;;;;;;;;;26.10;46.70;;;;;;5059808;28;19932;-69
2023/06/25 11:08:05;;;;;;;;;;;26.10;45.90;;;;;;5053337;28;19932;-69
2023/06/25 11:10:32;;;;;;;;;;;26.20;45.80;;;;;;5056603;28;19928;-69
2023/06/25 11:12:59;;;;;;;;;;;26.30;45.80;;;;;;5054914;28;20385;-70
2023/06/25 11:15:25;;;;;;;;;;;26.40;45.80;;;;;;5058514;28;20024;-70
2023/06/25 11:17:52;;;;;;;;;;;26.40;45.70;;;;;;5057049;28;19936;-69
2023/06/25 11:20:19;;;;;;;;;;;26.50;45.80;;;;;;5053719;28;20031;-69
2023/06/25 11:22:45;;;;;;;;;;;26.60;45.90;;;;;;5054970;28;19937;-69
2023/06/25 11:25:13;;;;;;;;;;;26.60;45.80;;;;;;5047012;28;20752;-70
2023/06/25 11:27:40;;;;;;;;;;;26.70;45.80;;;;;;5052347;28;20295;-70
2023/06/25 11:30:08;;;;;;;;;;;26.70;45.80;;;;;;5054769;28;20044;-69
2023/06/25 11:32:35;;;;;;;;;;;26.80;45.80;;;;;;5042977;28;19933;-70
2023/06/25 11:35:08;;;;;;;;;;;26.90;45.40;;;;;;5060711;28;19932;-70
2023/06/25 11:37:42;;;;;;;;;;;26.90;45.30;;;;;;5057464;28;19925;-70
2023/06/25 11:40:20;;;;;;;;;;;27.00;45.60;;;;;;5057090;28;19932;-70
2023/06/25 11:42:48;;;;;;;;;;;27.10;45.70;;;;;;5057403;28;19929;-70
2023/06/25 11:45:14;;;;;;;;;;;27.20;45.60;;;;;;5047950;28;19929;-70
2023/06/25 11:47:43;;;;;;;;;;;27.20;45.50;;;;;;5056281;28;19936;-70
2023/06/25 11:50:10;;;;;;;;;;;27.30;45.60;;;;;;5052979;28;20384;-69
2023/06/25 11:52:37;;;;;;;;;;;27.30;45.60;;;;;;5051301;28;19937;-70
2023/06/25 11:55:04;;;;;;;;;;;27.40;45.40;;;;;;5046488;28;19936;-69
2023/06/25 11:57:31;;;;;;;;;;;27.50;45.00;;;;;;5053429;28;19935;-70
2023/06/25 11:59:59;;;;;;;;;;;27.50;45.00;;;;;;5056062;28;20700;-70
2023/06/25 12:02:25;;;;;;;;;;;27.60;45.00;;;;;;5047709;28;19940;-69
2023/06/25 12:04:52;;;;;;;;;;;27.60;44.70;;;;;;5060633;28;19932;-70
2023/06/25 12:07:19;;;;;;;;;;;27.70;44.80;;;;;;5057395;28;19964;-70
2023/06/25 12:09:45;;;;;;;;;;;27.70;44.10;;;;;;5053229;28;20447;-69
2023/06/25 12:12:12;;;;;;;;;;;27.80;44.40;;;;;;5054269;28;19929;-71
2023/06/25 12:14:38;;;;;;;;;;;27.90;44.60;;;;;;5047639;28;19929;-69
2023/06/25 12:17:06;;;;;;;;;;;27.90;44.60;;;;;;5051723;28;19994;-70
2023/06/25 12:19:33;;;;;;;;;;;28.00;44.40;;;;;;5061626;28;19928;-70
2023/06/25 12:22:00;;;;;;;;;;;28.00;44.50;;;;;;5052615;28;19929;-71
2023/06/25 12:24:26;;;;;;;;;;;28.10;44.70;;;;;;5055088;28;19929;-70
2023/06/25 12:26:54;;;;;;;;;;;28.20;44.60;;;;;;5053938;28;19928;-70
2023/06/25 12:29:21;;;;;;;;;;;28.20;44.30;;;;;;5060500;28;19928;-70
2023/06/25 12:31:47;;;;;;;;;;;28.30;44.10;;;;;;5051532;28;19928;-70
2023/06/25 12:34:15;;;;;;;;;;;28.30;43.90;;;;;;5054736;28;19928;-70
2023/06/25 12:36:42;;;;;;;;;;;28.40;44.00;;;;;;5054330;28;20108;-71
2023/06/25 12:39:08;;;;;;;;;;;28.40;43.90;;;;;;5059810;28;19978;-70
2023/06/25 12:41:35;;;;;;;;;;;28.50;43.90;;;;;;5056232;28;20131;-70
2023/06/25 12:44:01;;;;;;;;;;;28.60;43.70;;;;;;5060145;28;20564;-69
2023/06/25 12:46:29;;;;;;;;;;;28.60;43.50;;;;;;5045712;28;19937;-70
2023/06/25 12:48:55;;;;;;;;;;;28.70;43.30;;;;;;5053067;28;19932;-70
2023/06/25 12:51:23;;;;;;;;;;;28.70;43.00;;;;;;5052176;28;19935;-71
2023/06/25 12:53:50;;;;;;;;;;;28.80;43.00;;;;;;5053477;28;19954;-70
2023/06/25 12:56:16;;;;;;;;;;;28.80;43.20;;;;;;5056031;28;19935;-70
2023/06/25 12:58:43;;;;;;;;;;;28.90;42.80;;;;;;5047029;28;19932;-70
2023/06/25 13:01:13;;;;;;;;;;;28.90;42.60;;;;;;5055869;28;20712;-69
2023/06/25 13:03:40;;;;;;;;;;;29.00;42.50;;;;;;5050141;28;19936;-70
2023/06/25 13:06:06;;;;;;;;;;;29.00;42.20;;;;;;5056175;28;20560;-70
2023/06/25 13:08:34;;;;;;;;;;;29.10;41.80;;;;;;5061055;28;19929;-70
2023/06/25 13:11:02;;;;;;;;;;;29.10;41.60;;;;;;5063754;28;19954;-71
2023/06/25 13:13:28;;;;;;;;;;;29.20;41.40;;;;;;5063159;28;20003;-70
2023/06/25 13:15:55;;;;;;;;;;;29.20;41.40;;;;;;5059051;28;19936;-70
2023/06/25 13:18:21;;;;;;;;;;;29.30;40.10;;;;;;5054979;28;20416;-70
2023/06/25 13:20:48;;;;;;;;;;;29.30;39.60;;;;;;5049694;28;19928;-70
2023/06/25 13:23:14;;;;;;;;;;;29.40;39.90;;;;;;5050450;28;19954;-70
2023/06/25 13:25:42;;;;;;;;;;;29.40;40.60;;;;;;5047907;28;19936;-70
2023/06/25 13:28:09;;;;;;;;;;;29.50;40.20;;;;;;5053245;28;19933;-70
2023/06/25 13:30:35;;;;;;;;;;;29.50;40.40;;;;;;5048904;28;20353;-70
2023/06/25 13:33:02;;;;;;;;;;;29.60;40.30;;;;;;5061774;28;19941;-70
2023/06/25 13:35:29;;;;;;;;;;;29.60;40.30;;;;;;5059743;28;20344;-70
2023/06/25 13:37:55;;;;;;;;;;;29.70;40.30;;;;;;5059417;28;20006;-70
2023/06/25 13:40:22;;;;;;;;;;;29.80;40.20;;;;;;5056331;28;19935;-70
2023/06/25 13:42:50;;;;;;;;;;;29.90;40.00;;;;;;5049061;28;19983;-70
2023/06/25 13:45:16;;;;;;;;;;;29.90;39.70;;;;;;5052134;28;19932;-70
2023/06/25 13:47:43;;;;;;;;;;;30.00;39.60;;;;;;5060252;28;19986;-70
2023/06/25 13:50:09;;;;;;;;;;;30.00;39.70;;;;;;5057904;28;19973;-70
2023/06/25 13:52:36;;;;;;;;;;;30.10;39.40;;;;;;5060347;28;19936;-69
2023/06/25 13:55:03;;;;;;;;;;;30.20;39.20;;;;;;5062937;28;19929;-70
2023/06/25 13:57:29;;;;;;;;;;;30.20;38.90;;;;;;5049463;28;20655;-70
2023/06/25 13:59:57;;;;;;;;;;;30.30;38.40;;;;;;5064420;28;19929;-69
2023/06/25 14:02:24;;;;;;;;;;;30.40;38.30;;;;;;5056741;28;19928;-70
2023/06/25 14:04:50;;;;;;;;;;;30.40;38.70;;;;;;5052918;28;19933;-70
2023/06/25 14:07:17;;;;;;;;;;;30.40;39.20;;;;;;5050532;28;20018;-69
2023/06/25 14:09:43;;;;;;;;;;;30.50;39.10;;;;;;5056635;28;20490;-70
2023/06/25 14:12:10;;;;;;;;;;;30.50;38.20;;;;;;5050593;28;20361;-71
2023/06/25 14:14:36;;;;;;;;;;;30.60;39.20;;;;;;5049200;28;19932;-70